createdAt,value
2023-05-19T11:12:05.654Z,2.92
2023-05-19T11:14:32.584Z,2.28
2023-05-19T11:16:59.758Z,2.22
2023-05-19T11:19:30.564Z,2.00
2023-05-19T11:21:58.671Z,1.90
2023-05-19T11:24:36.586Z,2.03
2023-05-19T11:27:21.916Z,2.17
2023-05-19T11:29:48.933Z,2.35
2023-05-19T11:32:15.904Z,2.03
2023-05-19T11:34:44.205Z,2.10
2023-05-19T11:37:11.459Z,1.95
2023-05-19T11:39:39.221Z,2.05
2023-05-19T11:42:05.694Z,2.38
2023-05-19T11:44:32.412Z,1.98
2023-05-19T11:46:59.257Z,1.73
2023-05-19T11:49:26.073Z,1.90
2023-05-19T11:51:52.887Z,1.90
2023-05-19T11:54:19.632Z,1.83
2023-05-19T11:56:46.214Z,2.35
2023-05-19T11:59:13.093Z,1.92
2023-05-19T12:01:39.606Z,1.95
2023-05-19T12:04:10.432Z,2.17
2023-05-19T12:06:37.902Z,1.83
2023-05-19T12:09:07.729Z,1.88
2023-05-19T12:11:34.350Z,1.92
2023-05-19T12:14:01.870Z,2.40
2023-05-19T12:16:35.535Z,2.30
2023-05-19T12:19:05.151Z,2.75
2023-05-19T12:21:33.993Z,1.80
2023-05-19T12:24:01.833Z,1.98
2023-05-19T12:26:28.261Z,2.05
2023-05-19T12:28:54.848Z,2.65
2023-05-19T12:31:23.428Z,1.77
2023-05-19T12:33:52.715Z,1.92
2023-05-19T12:36:19.432Z,1.77
2023-05-19T12:38:47.787Z,2.00
2023-05-19T12:41:14.775Z,1.95
2023-05-19T12:43:41.245Z,1.88
2023-05-19T12:46:14.101Z,2.10
2023-05-19T12:48:44.331Z,2.17
2023-05-19T12:51:11.336Z,2.42
2023-05-19T12:53:38.641Z,4.20
2023-05-19T12:56:13.000Z,2.75
2023-05-19T12:58:39.984Z,3.50
2023-05-19T13:01:06.967Z,2.53
2023-05-19T13:03:42.864Z,3.08
2023-05-19T13:06:10.378Z,2.63
2023-05-19T13:08:37.396Z,2.25
2023-05-19T13:11:04.395Z,2.53
2023-05-19T13:13:31.234Z,2.20
2023-05-19T13:15:57.666Z,2.40
2023-05-19T13:18:24.490Z,2.00
2023-05-19T13:20:52.980Z,2.33
2023-05-19T13:23:19.694Z,2.33
2023-05-19T13:25:49.445Z,2.05
2023-05-19T13:28:16.101Z,2.47
2023-05-19T13:30:43.745Z,2.53
2023-05-19T13:33:11.933Z,2.10
2023-05-19T13:35:39.052Z,2.40
2023-05-19T13:38:07.038Z,1.98
2023-05-19T13:40:34.674Z,3.00
2023-05-19T13:43:02.101Z,2.50
2023-05-19T13:45:28.974Z,2.63
2023-05-19T13:47:55.996Z,2.17
2023-05-19T13:50:22.753Z,1.75
2023-05-19T13:52:49.253Z,1.88
2023-05-19T13:55:26.234Z,2.13
2023-05-19T13:57:52.972Z,2.03
2023-05-19T14:00:19.481Z,1.80
2023-05-19T14:02:46.461Z,2.58
2023-05-19T14:05:13.137Z,2.03
2023-05-19T14:07:39.899Z,2.83
2023-05-19T14:10:06.931Z,2.50
2023-05-19T14:12:49.571Z,2.10
2023-05-19T14:15:22.085Z,2.17
2023-05-19T14:17:49.154Z,2.22
2023-05-19T14:20:15.765Z,2.03
2023-05-19T14:22:42.230Z,1.77
2023-05-19T14:25:08.796Z,1.75
2023-05-19T14:27:36.466Z,2.47
2023-05-19T14:30:10.766Z,1.63
2023-05-19T14:32:37.512Z,2.05
2023-05-19T14:35:04.550Z,2.05
2023-05-19T14:37:32.129Z,2.13
2023-05-19T14:39:59.237Z,1.90
2023-05-19T14:42:25.836Z,1.95
2023-05-19T14:44:52.267Z,1.88
2023-05-19T14:47:19.076Z,1.73
2023-05-19T14:49:45.642Z,2.08
2023-05-19T14:52:12.044Z,1.80
2023-05-19T14:54:38.472Z,2.00
2023-05-19T14:57:07.551Z,1.98
2023-05-19T14:59:36.839Z,2.70
2023-05-19T15:02:03.395Z,1.48
2023-05-19T15:04:29.947Z,1.45
2023-05-19T15:07:09.771Z,1.48
2023-05-19T15:09:37.353Z,2.33
2023-05-19T15:12:03.791Z,1.52
2023-05-19T15:14:30.988Z,1.98
2023-05-19T15:16:58.035Z,2.50
2023-05-19T15:19:24.761Z,2.20
2023-05-19T15:21:51.355Z,1.92
2023-05-19T15:24:17.932Z,1.55
2023-05-19T15:26:44.532Z,1.50
2023-05-19T15:29:11.013Z,2.30
2023-05-19T15:31:38.436Z,1.85
2023-05-19T15:34:05.295Z,1.80
2023-05-19T15:36:31.904Z,2.20
2023-05-19T15:38:58.425Z,2.25
2023-05-19T15:41:24.921Z,2.03
2023-05-19T15:43:51.437Z,1.80
2023-05-19T15:46:19.639Z,1.95
2023-05-19T15:48:46.273Z,2.08
2023-05-19T15:51:12.856Z,1.73
2023-05-19T15:53:39.301Z,2.03
2023-05-19T15:56:05.908Z,1.67
2023-05-19T15:58:32.764Z,1.90
2023-05-19T16:00:59.331Z,1.52
2023-05-19T16:03:25.957Z,1.55
2023-05-19T16:05:52.919Z,1.75
2023-05-19T16:08:19.776Z,2.10
2023-05-19T16:10:46.230Z,2.00
2023-05-19T16:13:12.857Z,1.90
2023-05-19T16:15:39.348Z,2.00
2023-05-19T16:18:06.036Z,1.90
2023-05-19T16:20:32.803Z,2.30
2023-05-19T16:22:59.464Z,2.10
2023-05-19T16:25:26.164Z,1.73
2023-05-19T16:27:52.583Z,2.13
2023-05-19T16:30:19.077Z,1.90
2023-05-19T16:32:48.189Z,2.17
2023-05-19T16:35:16.032Z,2.28
2023-05-19T16:37:42.599Z,1.77
2023-05-19T16:40:09.418Z,1.98
2023-05-19T16:42:35.859Z,1.52
2023-05-19T16:45:02.289Z,2.33
2023-05-19T16:47:28.781Z,1.85
2023-05-19T16:49:55.307Z,2.20
2023-05-19T16:52:24.234Z,1.88
2023-05-19T16:54:50.760Z,1.80
2023-05-19T16:57:17.182Z,1.65
2023-05-19T16:59:43.862Z,2.40
2023-05-19T17:02:10.547Z,2.40
2023-05-19T17:04:37.204Z,1.88
2023-05-19T17:07:03.969Z,2.05
2023-05-19T17:09:30.638Z,2.08
2023-05-19T17:11:57.175Z,2.22
2023-05-19T17:14:23.683Z,2.35
2023-05-19T17:16:52.379Z,2.00
2023-05-19T17:19:19.273Z,2.15
2023-05-19T17:21:46.394Z,2.22
2023-05-19T17:24:12.989Z,2.22
2023-05-19T17:26:39.561Z,2.42
2023-05-19T17:29:06.116Z,1.67
2023-05-19T17:31:33.119Z,2.33
2023-05-19T17:33:59.614Z,2.13
2023-05-19T17:36:26.435Z,2.13
2023-05-19T17:38:52.895Z,1.98
2023-05-19T17:41:19.449Z,2.25
2023-05-19T17:43:46.066Z,2.03
2023-05-19T17:46:12.556Z,2.03
2023-05-19T17:48:39.984Z,2.10
2023-05-19T17:51:09.514Z,2.30
2023-05-19T17:53:36.836Z,2.17
2023-05-19T17:56:04.551Z,2.10
2023-05-19T17:58:31.291Z,2.95
2023-05-19T18:00:57.947Z,1.90
2023-05-19T18:03:24.856Z,1.55
2023-05-19T18:05:51.744Z,2.33
2023-05-19T18:08:18.856Z,2.13
2023-05-19T18:10:46.114Z,1.90
2023-05-19T18:13:15.840Z,2.38
2023-05-19T18:15:42.404Z,2.13
2023-05-19T18:18:10.708Z,2.33
2023-05-19T18:20:44.291Z,2.20
2023-05-19T18:23:11.057Z,2.30
2023-05-19T18:25:38.156Z,1.98
2023-05-19T18:28:04.795Z,1.85
2023-05-19T18:30:31.398Z,2.72
2023-05-19T18:33:02.237Z,2.67
2023-05-19T18:35:28.789Z,2.85
2023-05-19T18:37:56.448Z,2.65
2023-05-19T18:40:23.008Z,2.00
2023-05-19T18:42:50.204Z,2.28
2023-05-19T18:45:16.789Z,2.63
2023-05-19T18:47:43.466Z,2.15
2023-05-19T18:50:10.345Z,2.10
2023-05-19T18:52:36.798Z,2.17
2023-05-19T18:55:03.918Z,2.88
2023-05-19T18:57:30.405Z,2.50
2023-05-19T18:59:57.222Z,3.45
2023-05-19T19:02:23.664Z,2.20
2023-05-19T19:04:50.480Z,3.20
2023-05-19T19:07:16.972Z,2.53
2023-05-19T19:09:43.880Z,2.38
2023-05-19T19:12:10.796Z,2.85
2023-05-19T19:14:37.378Z,2.00
2023-05-19T19:17:04.062Z,2.10
2023-05-19T19:19:30.833Z,2.50
2023-05-19T19:21:57.563Z,2.55
2023-05-19T19:24:24.829Z,2.80
2023-05-19T19:26:51.312Z,2.78
2023-05-19T19:29:18.294Z,2.72
2023-05-19T19:31:45.171Z,3.58
2023-05-19T19:34:12.073Z,3.60
2023-05-19T19:36:38.671Z,3.38
2023-05-19T19:39:05.191Z,10.02
2023-05-19T19:41:33.258Z,19.85
2023-05-19T19:43:59.698Z,10.18
2023-05-19T19:46:26.145Z,11.00
2023-05-19T19:48:52.739Z,9.30
2023-05-19T19:51:19.335Z,23.70
2023-05-19T19:53:45.956Z,18.00
2023-05-19T19:56:12.397Z,13.73
2023-05-19T19:58:38.983Z,14.18
2023-05-19T20:01:06.200Z,14.75
2023-05-19T20:03:33.563Z,8.05
2023-05-19T20:06:00.172Z,5.32
2023-05-19T20:08:26.839Z,9.27
2023-05-19T20:10:53.441Z,10.90
2023-05-19T20:13:20.203Z,7.57
2023-05-19T20:15:46.914Z,4.10
2023-05-19T20:18:13.626Z,5.63
2023-05-19T20:20:40.139Z,2.80
2023-05-19T20:23:07.782Z,3.00
2023-05-19T20:25:35.057Z,2.60
2023-05-19T20:28:05.120Z,2.22
2023-05-19T20:30:31.809Z,2.53
2023-05-19T20:32:58.978Z,3.40
2023-05-19T20:35:26.706Z,2.50
2023-05-19T20:37:53.683Z,3.08
2023-05-19T20:40:22.026Z,3.00
2023-05-19T20:42:49.557Z,2.83
2023-05-19T20:45:18.693Z,4.13
2023-05-19T20:47:45.597Z,3.05
2023-05-19T20:50:12.133Z,3.42
2023-05-19T20:52:39.186Z,3.60
2023-05-19T20:55:06.869Z,4.07
2023-05-19T20:57:36.126Z,3.10
2023-05-19T21:00:07.367Z,3.90
2023-05-19T21:02:33.987Z,3.05
2023-05-19T21:05:01.744Z,3.58
2023-05-19T21:07:28.313Z,3.50
2023-05-19T21:09:55.083Z,3.28
2023-05-19T21:12:25.298Z,3.20
2023-05-19T21:14:51.889Z,3.20
2023-05-19T21:17:19.205Z,3.45
2023-05-19T21:19:50.677Z,3.85
2023-05-19T21:22:20.271Z,3.33
2023-05-19T21:24:47.231Z,3.63
2023-05-19T21:27:14.885Z,3.75
2023-05-19T21:29:41.971Z,3.83
2023-05-19T21:32:08.629Z,3.60
2023-05-19T21:34:39.067Z,3.50
2023-05-19T21:37:05.687Z,3.22
2023-05-19T21:39:32.145Z,3.13
2023-05-19T21:41:58.605Z,3.47
2023-05-19T21:44:28.243Z,3.60
2023-05-19T21:46:54.910Z,3.40
2023-05-19T21:49:21.431Z,2.90
2023-05-19T21:51:50.972Z,3.45
2023-05-19T21:54:17.450Z,3.97
2023-05-19T21:56:47.079Z,3.65
2023-05-19T21:59:13.545Z,3.35
2023-05-19T22:01:45.076Z,3.90
2023-05-19T22:04:11.745Z,3.42
2023-05-19T22:06:40.096Z,3.15
2023-05-19T22:09:07.422Z,3.40
2023-05-19T22:11:33.930Z,3.45
2023-05-19T22:14:00.870Z,3.35
2023-05-19T22:16:33.799Z,3.40
2023-05-19T22:19:00.353Z,2.60
2023-05-19T22:21:28.745Z,3.58
2023-05-19T22:23:58.040Z,3.15
2023-05-19T22:26:24.470Z,3.58
2023-05-19T22:28:53.207Z,3.60
2023-05-19T22:31:19.895Z,3.35
2023-05-19T22:33:46.523Z,3.97
2023-05-19T22:36:13.432Z,3.00
2023-05-19T22:38:39.882Z,3.10
2023-05-19T22:41:06.563Z,4.07
2023-05-19T22:43:33.032Z,2.80
2023-05-19T22:45:59.580Z,3.17
2023-05-19T22:48:26.095Z,3.35
2023-05-19T22:50:52.838Z,2.83
2023-05-19T22:53:19.368Z,3.55
2023-05-19T22:55:46.150Z,3.05
2023-05-19T22:58:12.711Z,3.70
2023-05-19T23:00:39.157Z,2.88
2023-05-19T23:03:05.883Z,3.30
2023-05-19T23:05:32.633Z,3.60
2023-05-19T23:07:59.393Z,2.90
2023-05-19T23:10:25.893Z,4.28
2023-05-19T23:12:52.340Z,2.97
2023-05-19T23:15:19.073Z,3.92
2023-05-19T23:17:45.762Z,4.47
2023-05-19T23:20:12.666Z,3.80
2023-05-19T23:22:39.169Z,2.88
2023-05-19T23:25:07.718Z,3.28
2023-05-19T23:27:35.232Z,3.67
2023-05-19T23:30:02.152Z,4.18
2023-05-19T23:32:28.723Z,3.25
2023-05-19T23:34:55.295Z,3.72
2023-05-19T23:37:21.801Z,3.13
2023-05-19T23:39:48.326Z,4.07
2023-05-19T23:42:14.863Z,3.10
2023-05-19T23:44:41.632Z,3.17
2023-05-19T23:47:08.221Z,4.25
2023-05-19T23:49:34.786Z,3.22
2023-05-19T23:52:01.325Z,3.38
2023-05-19T23:54:27.807Z,4.78
2023-05-19T23:56:55.735Z,4.20
2023-05-19T23:59:22.305Z,4.60
